createdAt,value
2019-02-11T09:49:28.940Z,101801.42
2019-02-11T09:50:29.462Z,101800.83
2019-02-11T09:51:37.292Z,101800.69
2019-02-11T09:52:30.525Z,101800.52
2019-02-11T09:53:31.754Z,101801.00
2019-02-11T09:54:31.467Z,101800.83
2019-02-11T09:55:32.897Z,101800.98
2019-02-11T09:56:33.382Z,101801.83
2019-02-11T09:57:33.135Z,101803.00
2019-02-11T09:58:34.171Z,101803.40
2019-02-11T09:59:34.699Z,101804.56
2019-02-11T10:00:34.224Z,101805.66
2019-02-11T10:01:34.831Z,101806.82
2019-02-11T10:02:36.284Z,101808.55
2019-02-11T10:03:36.800Z,101809.45
2019-02-11T10:04:37.317Z,101811.48
2019-02-11T10:05:38.276Z,101812.80
2019-02-11T10:06:38.908Z,101814.73
2019-02-11T10:07:39.480Z,101817.00
2019-02-11T10:08:39.909Z,101819.61
2019-02-11T10:09:40.399Z,101821.53
2019-02-11T10:10:40.637Z,101824.29
2019-02-11T10:11:41.220Z,101827.05
2019-02-11T10:12:42.024Z,101829.58
2019-02-11T10:13:42.092Z,101831.51
2019-02-11T10:14:42.760Z,101833.52
2019-02-11T10:15:43.362Z,101835.44
2019-02-11T10:16:43.857Z,101837.73
2019-02-11T10:17:44.395Z,101839.97
2019-02-11T10:18:44.983Z,101841.64
2019-02-11T10:19:45.753Z,101843.98
2019-02-11T10:20:46.618Z,101847.01
2019-02-11T10:21:47.455Z,101848.80
2019-02-11T10:22:47.073Z,101850.64
2019-02-11T10:23:48.782Z,101852.73
2019-02-11T10:24:48.864Z,101854.91
2019-02-11T10:25:49.449Z,101857.25
2019-02-11T10:26:52.400Z,101859.36
2019-02-11T10:27:49.220Z,101860.86
2019-02-11T10:28:49.739Z,101862.54
2019-02-11T10:29:51.487Z,101864.61
2019-02-11T10:30:59.415Z,101866.88
2019-02-11T10:31:51.805Z,101869.15
2019-02-11T10:33:00.164Z,101871.59
2019-02-11T10:33:53.472Z,101874.10
2019-02-11T10:34:54.721Z,101876.26
2019-02-11T10:35:54.351Z,101877.95
2019-02-11T10:36:54.453Z,101879.61
2019-02-11T10:37:55.117Z,101881.44
2019-02-11T10:38:58.312Z,101882.86
2019-02-11T10:39:56.157Z,101885.55
2019-02-11T10:40:59.171Z,101887.61
2019-02-11T10:42:00.414Z,101889.80
2019-02-11T10:42:58.675Z,101891.69
2019-02-11T10:43:59.328Z,101894.44
2019-02-11T10:45:00.879Z,101896.95
2019-02-11T10:46:01.770Z,101899.28
2019-02-11T10:47:01.880Z,101902.15
2019-02-11T10:48:02.478Z,101903.83
2019-02-11T10:49:03.159Z,101905.56
2019-02-11T10:50:02.737Z,101907.16
2019-02-11T10:51:04.598Z,101908.91
2019-02-11T10:51:16.193Z,101941.75
2019-02-11T10:52:23.181Z,101941.41
2019-02-11T10:53:17.971Z,101940.98
2019-02-11T10:54:17.723Z,101940.47
2019-02-11T10:55:19.604Z,101939.36
2019-02-11T10:56:21.824Z,101939.20
2019-02-11T10:57:19.101Z,101938.84
2019-02-11T10:58:21.821Z,101939.33
2019-02-11T10:59:21.381Z,101939.39
2019-02-11T11:00:20.446Z,101939.89
2019-02-11T11:01:21.075Z,101939.83
2019-02-11T11:02:22.835Z,101940.62
2019-02-11T11:03:23.422Z,101940.56
2019-02-11T11:04:24.176Z,101940.50
2019-02-11T11:05:24.376Z,101939.89
2019-02-11T11:06:25.109Z,101940.83
2019-02-11T11:07:24.805Z,101941.47
2019-02-11T11:08:26.328Z,101941.77
2019-02-11T11:09:26.926Z,101941.89
2019-02-11T11:10:27.299Z,101942.79
2019-02-11T11:11:27.703Z,101943.68
2019-02-11T11:12:28.613Z,101943.90
2019-02-11T11:13:28.528Z,101944.69
2019-02-11T11:14:28.986Z,101945.18
2019-02-11T11:15:31.007Z,101945.13
2019-02-11T11:16:30.003Z,101945.87
2019-02-11T11:17:30.064Z,101945.95
2019-02-11T11:18:34.389Z,101947.31
2019-02-11T11:19:31.216Z,101948.31
2019-02-11T11:20:42.744Z,101949.34
2019-02-11T11:21:32.289Z,101950.12
2019-02-11T11:22:32.943Z,101950.95
2019-02-11T11:23:33.732Z,101951.75
2019-02-11T11:24:37.201Z,101952.94
2019-02-11T11:25:37.233Z,101954.20
2019-02-11T11:26:35.113Z,101955.80
2019-02-11T11:27:35.206Z,101956.72
2019-02-11T11:28:39.006Z,101958.16
2019-02-11T11:29:43.225Z,101959.82
2019-02-11T11:30:45.587Z,101961.06
2019-02-11T11:31:36.607Z,101962.41
2019-02-11T11:32:37.031Z,101963.33
2019-02-11T11:33:37.853Z,101964.73
2019-02-11T11:34:38.888Z,101966.02
2019-02-11T11:35:39.139Z,101967.25
2019-02-11T11:36:40.143Z,101968.70
2019-02-11T11:37:40.590Z,101970.27
2019-02-11T11:38:41.493Z,101971.47
2019-02-11T11:39:43.483Z,101973.14
2019-02-11T11:40:43.809Z,101974.25
2019-02-11T11:41:44.098Z,101975.84
2019-02-11T11:42:44.853Z,101976.92
2019-02-11T11:43:44.267Z,101978.94
2019-02-11T11:44:45.763Z,101980.28
2019-02-11T11:45:45.496Z,101980.90
2019-02-11T11:46:47.306Z,101981.41
2019-02-11T11:47:46.385Z,101982.55
2019-02-11T11:48:47.044Z,101983.31
2019-02-11T11:49:47.477Z,101983.97
2019-02-11T11:50:48.777Z,101984.39
2019-02-11T11:51:49.367Z,101985.41
2019-02-11T11:52:50.096Z,101986.73
2019-02-11T11:53:49.342Z,101987.45
2019-02-11T11:54:50.282Z,101988.06
2019-02-11T11:55:50.507Z,101989.30
2019-02-11T11:56:51.008Z,101990.61
2019-02-11T11:57:51.573Z,101991.62
2019-02-11T11:58:53.446Z,101992.77
2019-02-11T11:59:52.482Z,101993.81
2019-02-11T12:00:54.259Z,101994.17
2019-02-11T12:01:53.090Z,101994.05
2019-02-11T12:03:01.716Z,101994.72
2019-02-11T12:03:54.262Z,101994.75
2019-02-11T12:04:55.095Z,101993.92
2019-02-11T12:05:55.234Z,101993.87
2019-02-11T12:06:08.705Z,101987.50
2019-02-11T12:07:09.911Z,101987.34
2019-02-11T12:08:09.913Z,101987.77
2019-02-11T12:09:11.385Z,101987.67
2019-02-11T12:10:10.374Z,101989.05
2019-02-11T12:11:12.355Z,101988.93
2019-02-11T12:12:13.183Z,101988.64
2019-02-11T12:13:22.695Z,101989.63
2019-02-11T12:14:13.122Z,101990.08
2019-02-11T12:15:13.328Z,101990.87
2019-02-11T12:16:13.563Z,101991.48
2019-02-11T12:17:14.113Z,101992.36
2019-02-11T12:18:14.772Z,101993.78
2019-02-11T12:19:15.301Z,101994.81
2019-02-11T12:20:15.297Z,101995.65
2019-02-11T12:21:15.738Z,101996.65
2019-02-11T12:22:16.483Z,101997.14
2019-02-11T12:23:16.823Z,101999.03
2019-02-11T12:24:18.129Z,102000.14
2019-02-11T12:25:17.998Z,102001.34
2019-02-11T12:26:21.492Z,102002.77
2019-02-11T12:27:19.583Z,102003.95
2019-02-11T12:28:19.632Z,102006.34
2019-02-11T12:29:20.209Z,102008.09
2019-02-11T12:30:29.889Z,102010.04
2019-02-11T12:31:21.899Z,102011.90
2019-02-11T12:32:21.614Z,102013.49
2019-02-11T12:33:23.496Z,102014.92
2019-02-11T12:34:23.441Z,102015.66
2019-02-11T12:36:25.116Z,102016.50
2019-02-11T12:37:25.235Z,102016.70
